createdAt,value
2022-12-18T00:00:17.817Z,23.27
2022-12-18T00:01:21.546Z,22.33
2022-12-18T00:02:24.346Z,20.95
2022-12-18T00:03:27.073Z,22.15
2022-12-18T00:04:35.617Z,22.92
2022-12-18T00:05:37.368Z,23.65
2022-12-18T00:06:44.065Z,23.95
2022-12-18T00:07:46.266Z,22.05
2022-12-18T00:08:49.808Z,21.08
2022-12-18T00:09:51.668Z,20.98
2022-12-18T00:10:54.327Z,21.08
2022-12-18T00:13:18.701Z,20.08
2022-12-18T00:14:20.387Z,21.25
2022-12-18T00:15:23.241Z,21.38
2022-12-18T00:16:31.059Z,20.50
2022-12-18T00:17:33.976Z,20.02
2022-12-18T00:18:36.332Z,19.27
2022-12-18T00:19:42.081Z,19.48
2022-12-18T00:20:43.764Z,19.08
2022-12-18T00:21:47.852Z,20.83
2022-12-18T00:22:49.845Z,19.23
2022-12-18T00:23:56.179Z,19.92
2022-12-18T00:24:58.251Z,19.88
2022-12-18T00:26:03.531Z,20.63
2022-12-18T00:27:05.301Z,19.67
2022-12-18T00:28:10.501Z,19.83
2022-12-18T00:29:14.997Z,20.33
2022-12-18T00:30:17.751Z,21.08
2022-12-18T00:31:21.723Z,20.05
2022-12-18T00:32:24.536Z,20.67
2022-12-18T00:33:26.445Z,21.02
2022-12-18T00:34:32.174Z,20.48
2022-12-18T00:35:36.975Z,20.17
2022-12-18T00:36:42.824Z,20.38
2022-12-18T00:37:57.967Z,19.38
2022-12-18T00:39:04.518Z,19.67
2022-12-18T00:40:07.510Z,19.20
2022-12-18T00:41:13.843Z,19.08
2022-12-18T00:42:34.379Z,18.38
2022-12-18T00:43:36.439Z,14.43
2022-12-18T00:44:38.493Z,18.17
2022-12-18T00:45:47.274Z,19.02
2022-12-18T00:46:52.240Z,18.23
2022-12-18T00:47:58.549Z,18.23
2022-12-18T00:49:06.253Z,19.33
2022-12-18T00:50:10.487Z,16.92
2022-12-18T00:51:14.512Z,17.75
2022-12-18T00:52:17.326Z,17.75
2022-12-18T00:53:20.668Z,18.30
2022-12-18T00:54:23.443Z,17.75
2022-12-18T00:55:25.216Z,17.73
2022-12-18T00:56:27.949Z,18.83
2022-12-18T00:57:32.083Z,17.20
2022-12-18T00:58:34.734Z,18.25
2022-12-18T00:59:39.062Z,18.20
2022-12-18T01:00:41.869Z,18.55
2022-12-18T01:01:43.775Z,18.27
2022-12-18T01:02:46.940Z,16.88
2022-12-18T01:03:48.748Z,19.05
2022-12-18T01:04:51.392Z,18.20
2022-12-18T01:05:54.104Z,16.70
2022-12-18T01:06:55.903Z,17.55
2022-12-18T01:08:01.130Z,17.92
2022-12-18T01:09:04.858Z,17.90
2022-12-18T01:10:09.432Z,18.85
2022-12-18T01:11:13.028Z,19.35
2022-12-18T01:12:15.857Z,17.95
2022-12-18T01:13:19.777Z,17.27
2022-12-18T01:14:22.850Z,18.00
2022-12-18T01:15:24.535Z,16.40
2022-12-18T01:16:27.453Z,17.60
2022-12-18T01:17:30.553Z,18.63
2022-12-18T01:18:35.648Z,17.83
2022-12-18T01:19:37.356Z,16.95
2022-12-18T01:20:40.463Z,17.45
2022-12-18T01:21:42.152Z,16.80
2022-12-18T01:22:47.171Z,17.17
2022-12-18T01:23:52.944Z,16.88
2022-12-18T01:24:58.784Z,16.35
2022-12-18T01:26:05.594Z,18.38
2022-12-18T01:27:10.373Z,18.13
2022-12-18T01:28:12.129Z,16.50
2022-12-18T01:29:14.779Z,16.25
2022-12-18T01:30:16.451Z,16.85
2022-12-18T01:31:21.464Z,17.08
2022-12-18T01:32:23.619Z,16.08
2022-12-18T01:33:26.257Z,17.50
2022-12-18T01:34:28.103Z,17.38
2022-12-18T01:35:30.776Z,17.15
2022-12-18T01:36:34.461Z,16.95
2022-12-18T01:37:37.139Z,16.13
2022-12-18T01:38:38.779Z,16.88
2022-12-18T01:39:44.387Z,16.27
2022-12-18T01:40:47.352Z,16.23
2022-12-18T01:42:05.238Z,16.27
2022-12-18T01:43:10.245Z,14.52
2022-12-18T01:44:46.668Z,15.95
2022-12-18T01:45:49.362Z,15.63
2022-12-18T01:46:50.940Z,15.90
2022-12-18T01:47:57.021Z,16.70
2022-12-18T01:49:01.579Z,16.15
2022-12-18T01:50:08.447Z,16.17
2022-12-18T01:51:14.410Z,16.63
2022-12-18T01:52:19.063Z,15.75
2022-12-18T01:53:24.810Z,15.52
2022-12-18T01:54:30.027Z,16.50
2022-12-18T01:55:38.149Z,15.07
2022-12-18T01:56:41.280Z,16.25
2022-12-18T01:57:44.257Z,16.20
2022-12-18T01:58:54.504Z,16.08
2022-12-18T02:00:03.979Z,11.38
2022-12-18T02:01:05.989Z,15.65
2022-12-18T02:02:09.861Z,16.00
2022-12-18T02:03:12.171Z,15.02
2022-12-18T02:04:23.190Z,13.57
2022-12-18T02:05:37.375Z,14.23
2022-12-18T02:06:43.878Z,13.95
2022-12-18T02:07:58.027Z,14.30
2022-12-18T02:09:11.997Z,14.45
2022-12-18T02:10:20.573Z,14.75
2022-12-18T02:11:37.292Z,15.00
2022-12-18T02:12:45.906Z,14.23
2022-12-18T02:13:55.547Z,13.75
2022-12-18T02:15:06.932Z,13.10
2022-12-18T02:16:17.320Z,14.18
2022-12-18T02:17:22.212Z,11.60
2022-12-18T02:18:30.252Z,14.18
2022-12-18T02:19:48.678Z,14.05
2022-12-18T02:20:57.463Z,14.27
2022-12-18T02:22:13.645Z,14.00
2022-12-18T02:23:27.638Z,13.60
2022-12-18T02:24:40.962Z,14.30
2022-12-18T02:26:06.940Z,14.88
2022-12-18T02:27:10.539Z,14.38
2022-12-18T02:28:17.803Z,13.65
2022-12-18T02:29:25.123Z,14.32
2022-12-18T02:30:31.028Z,15.05
2022-12-18T02:31:36.660Z,13.50
2022-12-18T02:32:43.494Z,13.25
2022-12-18T02:33:46.904Z,14.25
2022-12-18T02:34:51.134Z,14.35
2022-12-18T02:35:55.106Z,14.10
2022-12-18T02:37:00.168Z,14.95
2022-12-18T02:38:04.094Z,14.20
2022-12-18T02:39:10.107Z,14.10
2022-12-18T02:40:14.221Z,13.90
2022-12-18T02:41:19.353Z,12.95
2022-12-18T02:42:21.144Z,13.65
2022-12-18T02:43:26.259Z,13.23
2022-12-18T02:44:28.041Z,13.43
2022-12-18T02:45:30.705Z,13.98
2022-12-18T02:46:37.600Z,13.35
2022-12-18T02:47:44.268Z,13.55
2022-12-18T02:48:47.632Z,13.65
2022-12-18T02:49:59.433Z,13.63
2022-12-18T02:51:08.079Z,13.45
2022-12-18T02:52:20.195Z,13.90
2022-12-18T02:53:29.385Z,12.48
2022-12-18T02:54:45.458Z,13.70
2022-12-18T02:55:58.422Z,13.57
2022-12-18T02:57:11.704Z,13.30
2022-12-18T02:58:17.209Z,13.38
2022-12-18T02:59:25.071Z,13.32
2022-12-18T03:00:34.431Z,12.68
2022-12-18T03:01:45.271Z,13.65
2022-12-18T03:02:55.272Z,13.00
2022-12-18T03:04:01.684Z,9.70
2022-12-18T03:05:10.584Z,12.38
2022-12-18T03:06:23.503Z,12.65
2022-12-18T03:07:35.817Z,12.20
2022-12-18T03:08:41.279Z,12.45
2022-12-18T03:09:47.718Z,12.35
2022-12-18T03:10:55.994Z,13.13
2022-12-18T03:12:22.425Z,13.55
2022-12-18T03:13:34.057Z,12.68
2022-12-18T03:14:39.057Z,12.68
2022-12-18T03:15:45.948Z,12.15
2022-12-18T03:16:52.691Z,13.68
2022-12-18T03:18:01.265Z,13.50
2022-12-18T03:19:07.027Z,13.13
2022-12-18T03:20:14.153Z,11.88
2022-12-18T03:21:18.584Z,13.40
2022-12-18T03:22:22.969Z,13.80
2022-12-18T03:23:29.839Z,12.60
2022-12-18T03:24:35.315Z,13.02
2022-12-18T03:25:40.766Z,13.30
2022-12-18T03:26:54.514Z,14.40
2022-12-18T03:28:02.527Z,14.52
2022-12-18T03:29:09.560Z,14.13
2022-12-18T03:30:14.156Z,16.77
2022-12-18T03:31:18.148Z,14.85
2022-12-18T03:32:25.196Z,14.40
2022-12-18T03:33:31.757Z,18.42
2022-12-18T03:34:38.887Z,22.27
2022-12-18T03:35:44.656Z,14.13
2022-12-18T03:36:46.579Z,12.98
2022-12-18T03:37:49.216Z,12.25
2022-12-18T03:38:52.196Z,13.10
2022-12-18T03:39:54.192Z,12.65
2022-12-18T03:41:05.105Z,11.82
2022-12-18T03:42:12.730Z,12.32
2022-12-18T03:43:22.845Z,11.73
2022-12-18T03:44:33.616Z,9.25
2022-12-18T03:46:48.111Z,11.93
2022-12-18T03:48:01.237Z,10.50
2022-12-18T03:49:12.359Z,11.73
2022-12-18T03:50:20.157Z,12.25
2022-12-18T03:51:30.684Z,12.30
2022-12-18T03:52:39.100Z,9.45
2022-12-18T03:53:47.210Z,12.30
2022-12-18T03:54:50.189Z,11.13
2022-12-18T03:55:53.068Z,12.27
2022-12-18T03:57:02.800Z,11.43
2022-12-18T03:58:07.515Z,9.85
2022-12-18T03:59:13.488Z,11.35
2022-12-18T04:00:18.119Z,12.23
2022-12-18T04:01:26.012Z,11.80
2022-12-18T04:02:29.874Z,11.93
2022-12-18T04:03:36.381Z,12.05
2022-12-18T04:04:41.230Z,11.55
2022-12-18T04:05:45.561Z,11.32
2022-12-18T04:06:49.234Z,12.25
2022-12-18T04:07:53.243Z,12.65
2022-12-18T04:08:55.075Z,11.80
2022-12-18T04:10:03.430Z,12.05
2022-12-18T04:11:05.336Z,11.98
2022-12-18T04:12:10.252Z,10.82
2022-12-18T04:13:12.187Z,11.52
2022-12-18T04:14:18.241Z,11.77
2022-12-18T04:15:20.409Z,12.38
2022-12-18T04:16:23.004Z,11.63
2022-12-18T04:17:25.037Z,11.75
2022-12-18T04:18:30.611Z,11.57
2022-12-18T04:19:33.305Z,12.05
2022-12-18T04:20:34.911Z,11.82
2022-12-18T04:21:37.580Z,12.00
2022-12-18T04:22:39.220Z,12.63
2022-12-18T04:23:42.063Z,12.40
2022-12-18T04:24:43.936Z,12.20
2022-12-18T04:25:47.383Z,12.60
2022-12-18T04:26:48.978Z,11.50
2022-12-18T04:27:51.618Z,12.27
2022-12-18T04:28:53.331Z,11.95
2022-12-18T04:29:57.309Z,11.27
2022-12-18T04:30:59.009Z,11.07
2022-12-18T04:32:01.624Z,11.48
2022-12-18T04:33:03.617Z,11.23
2022-12-18T04:34:09.316Z,12.80
2022-12-18T04:35:12.145Z,11.52
2022-12-18T04:36:14.879Z,12.10
2022-12-18T04:37:16.585Z,12.43
2022-12-18T04:38:19.184Z,12.75
2022-12-18T04:39:20.771Z,11.60
2022-12-18T04:40:23.422Z,12.70
2022-12-18T04:41:24.994Z,11.85
2022-12-18T04:42:27.536Z,12.43
2022-12-18T04:43:29.195Z,12.18
2022-12-18T04:44:31.793Z,12.48
2022-12-18T04:45:34.864Z,12.05
2022-12-18T04:46:37.611Z,10.80
2022-12-18T04:47:39.277Z,11.60
2022-12-18T04:48:41.838Z,11.57
2022-12-18T04:49:43.455Z,12.15
2022-12-18T04:50:46.341Z,11.77
2022-12-18T04:51:49.713Z,11.75
2022-12-18T04:52:52.339Z,11.55
2022-12-18T04:53:54.902Z,12.63
2022-12-18T04:54:56.481Z,11.90
2022-12-18T04:56:06.915Z,12.00
2022-12-18T04:57:08.553Z,9.35
2022-12-18T04:58:19.819Z,11.00
2022-12-18T04:59:24.196Z,11.55
2022-12-18T05:00:27.031Z,11.85
2022-12-18T05:01:34.785Z,11.73
2022-12-18T05:02:37.988Z,10.88
2022-12-18T05:03:43.212Z,10.65
2022-12-18T05:04:46.476Z,11.15
2022-12-18T05:05:53.393Z,11.32
2022-12-18T05:06:56.076Z,10.93
2022-12-18T05:07:57.722Z,10.93
2022-12-18T05:09:01.932Z,10.95
2022-12-18T05:10:06.419Z,11.23
2022-12-18T05:11:10.717Z,10.90
2022-12-18T05:12:12.343Z,10.63
2022-12-18T05:13:15.128Z,11.57
2022-12-18T05:14:16.791Z,10.40
2022-12-18T05:15:19.458Z,11.38
2022-12-18T05:16:22.155Z,11.40
2022-12-18T05:17:25.333Z,10.85
2022-12-18T05:18:31.033Z,10.93
2022-12-18T05:19:32.713Z,10.68
2022-12-18T05:20:35.292Z,10.52
2022-12-18T05:21:39.220Z,10.57
2022-12-18T05:22:43.757Z,10.77
2022-12-18T05:23:45.498Z,11.35
2022-12-18T05:24:48.085Z,11.00
2022-12-18T05:25:52.502Z,10.27
2022-12-18T05:26:55.121Z,10.90
2022-12-18T05:27:56.725Z,10.20
2022-12-18T05:29:01.628Z,11.10
2022-12-18T05:30:04.142Z,10.52
2022-12-18T05:31:07.263Z,11.02
2022-12-18T05:32:09.128Z,10.45
2022-12-18T05:33:13.120Z,10.13
2022-12-18T05:34:15.024Z,9.88
2022-12-18T05:35:17.833Z,10.00
2022-12-18T05:36:19.548Z,10.63
2022-12-18T05:37:22.157Z,11.45
2022-12-18T05:38:25.394Z,10.05
2022-12-18T05:39:30.755Z,11.35
2022-12-18T05:40:32.393Z,10.35
2022-12-18T05:41:35.959Z,10.32
2022-12-18T05:42:37.973Z,9.90
2022-12-18T05:43:42.254Z,10.27
2022-12-18T05:44:44.961Z,10.88
2022-12-18T05:45:47.824Z,9.93
2022-12-18T05:46:52.376Z,10.38
2022-12-18T05:47:57.092Z,10.55
2022-12-18T05:49:02.190Z,11.02
2022-12-18T05:50:05.311Z,10.65
2022-12-18T05:51:11.701Z,10.60
2022-12-18T05:52:16.271Z,11.52
2022-12-18T05:53:21.357Z,11.32
2022-12-18T05:54:29.418Z,10.00
2022-12-18T05:55:34.046Z,11.00
2022-12-18T05:56:36.646Z,11.07
2022-12-18T05:57:40.475Z,10.23
2022-12-18T05:58:43.759Z,10.93
2022-12-18T05:59:45.431Z,11.13
2022-12-18T06:00:48.186Z,11.32
2022-12-18T06:01:50.262Z,10.40
2022-12-18T06:02:53.075Z,11.13
2022-12-18T06:03:55.880Z,11.15
2022-12-18T06:05:02.656Z,10.15
2022-12-18T06:06:04.673Z,10.93
2022-12-18T06:07:07.279Z,10.93
2022-12-18T06:08:09.853Z,10.90
2022-12-18T06:09:15.601Z,11.35
2022-12-18T06:10:19.232Z,10.93
2022-12-18T06:11:24.199Z,12.60
2022-12-18T06:12:26.207Z,11.45
2022-12-18T06:13:28.828Z,11.95
2022-12-18T06:14:30.622Z,11.77
2022-12-18T06:15:33.471Z,11.80
2022-12-18T06:16:35.223Z,12.05
2022-12-18T06:17:37.954Z,11.85
2022-12-18T06:18:39.663Z,11.00
2022-12-18T06:19:42.543Z,12.80
2022-12-18T06:20:45.854Z,12.52
2022-12-18T06:21:50.156Z,12.00
2022-12-18T06:22:51.828Z,13.10
2022-12-18T06:23:54.702Z,12.57
2022-12-18T06:24:56.385Z,13.20
2022-12-18T06:25:59.390Z,13.48
2022-12-18T06:27:01.025Z,12.82
2022-12-18T06:28:03.810Z,12.88
2022-12-18T06:29:07.126Z,12.15
2022-12-18T06:30:11.352Z,13.57
2022-12-18T06:31:13.317Z,12.52
2022-12-18T06:32:16.040Z,12.88
2022-12-18T06:33:18.144Z,13.77
2022-12-18T06:34:20.755Z,13.00
2022-12-18T06:35:22.520Z,12.20
2022-12-18T06:36:26.932Z,12.40
2022-12-18T06:37:29.192Z,12.90
2022-12-18T06:38:32.907Z,12.25
2022-12-18T06:39:34.576Z,13.60
2022-12-18T06:40:39.376Z,13.10
2022-12-18T06:41:40.972Z,12.93
2022-12-18T06:42:43.788Z,13.05
2022-12-18T06:43:45.771Z,12.23
2022-12-18T06:44:48.696Z,12.40
2022-12-18T06:45:53.609Z,12.02
2022-12-18T06:46:57.060Z,12.25
2022-12-18T06:47:58.820Z,11.65
2022-12-18T06:49:02.016Z,12.20
2022-12-18T06:50:08.635Z,11.60
2022-12-18T06:51:11.258Z,11.25
2022-12-18T06:52:16.906Z,11.23
2022-12-18T06:53:19.781Z,11.43
2022-12-18T06:54:21.793Z,9.60
2022-12-18T06:55:25.070Z,10.70
2022-12-18T06:56:27.704Z,10.27
2022-12-18T06:57:29.437Z,10.88
2022-12-18T06:58:32.208Z,11.40
2022-12-18T06:59:34.030Z,11.50
2022-12-18T07:00:37.206Z,10.77
2022-12-18T07:01:39.036Z,10.68
2022-12-18T07:02:41.883Z,11.30
2022-12-18T07:03:44.770Z,10.55
2022-12-18T07:04:47.733Z,11.25
2022-12-18T07:05:49.332Z,10.48
2022-12-18T07:06:51.873Z,10.27
2022-12-18T07:07:55.042Z,11.48
2022-12-18T07:09:00.114Z,11.18
2022-12-18T07:10:01.738Z,11.95
2022-12-18T07:11:06.293Z,11.45
2022-12-18T07:12:09.108Z,11.80
2022-12-18T07:13:10.792Z,11.95
2022-12-18T07:14:13.438Z,12.32
2022-12-18T07:15:20.726Z,12.13
2022-12-18T07:16:26.254Z,13.32
2022-12-18T07:17:29.332Z,13.07
2022-12-18T07:18:31.039Z,13.55
2022-12-18T07:19:36.816Z,14.15
2022-12-18T07:20:38.523Z,14.10
2022-12-18T07:21:43.851Z,15.27
2022-12-18T07:22:52.065Z,15.40
2022-12-18T07:24:02.797Z,15.43
2022-12-18T07:25:12.526Z,14.32
2022-12-18T07:26:18.079Z,11.05
2022-12-18T07:27:24.080Z,16.67
2022-12-18T07:28:28.710Z,16.02
2022-12-18T07:29:31.945Z,16.65
2022-12-18T07:30:33.837Z,17.15
2022-12-18T07:31:38.933Z,16.92
2022-12-18T07:32:40.897Z,16.88
2022-12-18T07:33:45.193Z,15.55
2022-12-18T07:34:46.853Z,16.00
2022-12-18T07:35:52.384Z,15.85
2022-12-18T07:36:54.962Z,14.27
2022-12-18T07:37:56.622Z,14.43
2022-12-18T07:39:02.222Z,15.50
2022-12-18T07:40:04.350Z,14.77
2022-12-18T07:41:10.122Z,13.20
2022-12-18T07:42:30.628Z,13.13
2022-12-18T07:43:33.264Z,11.00
2022-12-18T07:44:38.218Z,13.95
2022-12-18T07:45:40.891Z,14.35
2022-12-18T07:46:42.928Z,14.35
2022-12-18T07:47:45.568Z,13.75
2022-12-18T07:48:50.522Z,14.55
2022-12-18T07:49:53.265Z,14.05
2022-12-18T07:50:54.994Z,16.08
2022-12-18T07:51:58.477Z,15.43
2022-12-18T07:53:04.621Z,14.65
2022-12-18T07:54:08.509Z,16.60
2022-12-18T07:55:10.218Z,14.05
2022-12-18T07:56:31.464Z,13.55
2022-12-18T07:57:50.114Z,14.68
2022-12-18T07:58:54.114Z,13.57
2022-12-18T07:59:55.770Z,15.00
2022-12-18T08:01:08.715Z,14.38
2022-12-18T08:02:10.609Z,12.75
2022-12-18T08:03:15.062Z,12.77
2022-12-18T08:04:18.022Z,12.35
2022-12-18T08:05:19.689Z,14.32
2022-12-18T08:06:23.992Z,14.32
2022-12-18T08:07:27.183Z,13.30
2022-12-18T08:08:29.399Z,13.55
2022-12-18T08:09:33.386Z,14.50
2022-12-18T08:10:35.388Z,13.75
2022-12-18T08:11:40.601Z,13.38
2022-12-18T08:12:42.330Z,14.18
2022-12-18T08:13:44.885Z,12.85
2022-12-18T08:14:46.579Z,13.50
2022-12-18T08:16:00.593Z,13.77
2022-12-18T08:17:02.253Z,13.73
2022-12-18T08:18:05.972Z,12.75
2022-12-18T08:19:12.048Z,13.38
2022-12-18T08:20:15.884Z,13.15
2022-12-18T08:21:21.996Z,14.82
2022-12-18T08:22:23.742Z,13.48
2022-12-18T08:23:28.733Z,13.18
2022-12-18T08:24:33.648Z,13.32
2022-12-18T08:25:35.341Z,12.90
2022-12-18T08:27:06.658Z,13.43
2022-12-18T08:28:12.482Z,12.18
2022-12-18T08:29:17.322Z,12.80
2022-12-18T08:30:24.015Z,13.25
2022-12-18T08:31:27.544Z,14.23
2022-12-18T08:32:30.279Z,13.60
2022-12-18T08:33:32.086Z,13.38
2022-12-18T08:34:37.498Z,13.52
2022-12-18T08:35:45.485Z,13.82
2022-12-18T08:36:48.519Z,13.98
2022-12-18T08:37:51.005Z,15.48
2022-12-18T08:38:54.171Z,14.82
2022-12-18T08:39:58.301Z,14.73
2022-12-18T08:41:01.051Z,16.27
2022-12-18T08:42:24.262Z,16.42
2022-12-18T08:43:44.885Z,15.63
2022-12-18T08:44:53.550Z,13.05
2022-12-18T08:45:55.287Z,15.43
2022-12-18T08:46:58.131Z,18.58
2022-12-18T08:47:59.768Z,19.58
2022-12-18T08:49:02.460Z,21.05
2022-12-18T08:50:07.060Z,18.83
2022-12-18T08:51:10.492Z,16.25
2022-12-18T08:52:13.151Z,15.80
2022-12-18T08:53:15.248Z,15.35
2022-12-18T08:54:17.993Z,16.88
2022-12-18T08:55:24.102Z,16.58
2022-12-18T08:56:25.959Z,17.20
2022-12-18T08:57:28.675Z,16.35
2022-12-18T08:58:30.860Z,15.73
2022-12-18T08:59:36.181Z,15.60
2022-12-18T09:00:40.523Z,15.48
2022-12-18T09:01:43.198Z,14.55
2022-12-18T09:02:45.029Z,15.80
2022-12-18T09:03:47.663Z,16.65
2022-12-18T09:04:56.914Z,16.30
2022-12-18T09:06:00.444Z,12.73
2022-12-18T09:07:02.148Z,16.77
2022-12-18T09:08:04.931Z,17.02
2022-12-18T09:09:08.030Z,17.83
2022-12-18T09:10:10.025Z,17.23
2022-12-18T09:11:20.661Z,17.02
2022-12-18T09:12:23.263Z,14.48
2022-12-18T09:13:25.161Z,17.08
2022-12-18T09:14:27.707Z,18.48
2022-12-18T09:15:29.293Z,19.85
2022-12-18T09:16:33.539Z,18.27
2022-12-18T09:17:35.674Z,18.38
2022-12-18T09:18:38.709Z,18.17
2022-12-18T09:19:41.589Z,17.85
2022-12-18T09:20:43.375Z,18.60
2022-12-18T09:21:48.285Z,19.00
2022-12-18T09:22:50.221Z,18.75
2022-12-18T09:23:54.221Z,19.65
2022-12-18T09:24:58.431Z,20.23
2022-12-18T09:26:02.614Z,21.80
2022-12-18T09:27:07.699Z,20.08
2022-12-18T09:28:20.065Z,18.63
2022-12-18T09:29:23.123Z,18.15
2022-12-18T09:30:24.761Z,17.50
2022-12-18T09:31:29.819Z,20.42
2022-12-18T09:32:32.388Z,18.40
2022-12-18T09:33:37.905Z,19.38
2022-12-18T09:34:39.995Z,18.67
2022-12-18T09:35:44.733Z,17.70
2022-12-18T09:36:47.709Z,19.00
2022-12-18T09:37:49.726Z,18.67
2022-12-18T09:38:52.450Z,19.88
2022-12-18T09:39:55.474Z,19.88
2022-12-18T09:41:02.409Z,18.83
2022-12-18T09:42:07.548Z,19.50
2022-12-18T09:43:19.736Z,19.67
2022-12-18T09:44:27.115Z,18.58
2022-12-18T09:45:33.172Z,20.15
2022-12-18T09:46:42.574Z,19.45
2022-12-18T09:47:47.989Z,19.30
2022-12-18T09:48:53.490Z,19.35
2022-12-18T09:50:00.187Z,19.63
2022-12-18T09:51:10.424Z,19.20
2022-12-18T09:52:19.628Z,15.23
2022-12-18T09:53:29.385Z,15.07
2022-12-18T09:54:37.442Z,21.17
2022-12-18T09:55:43.850Z,20.42
2022-12-18T09:56:45.934Z,21.38
2022-12-18T09:57:54.330Z,19.92
2022-12-18T09:58:59.468Z,22.48
2022-12-18T10:00:19.318Z,26.13
2022-12-18T10:01:24.313Z,22.40
2022-12-18T10:02:32.095Z,21.02
2022-12-18T10:03:33.775Z,20.77
2022-12-18T10:04:36.319Z,22.85
2022-12-18T10:05:45.327Z,25.17
2022-12-18T10:06:56.428Z,24.95
2022-12-18T10:08:08.109Z,23.85
2022-12-18T10:09:21.364Z,25.05
2022-12-18T10:10:33.008Z,25.75
2022-12-18T10:11:45.584Z,22.83
2022-12-18T10:13:04.293Z,23.70
2022-12-18T10:14:16.697Z,21.25
2022-12-18T10:15:30.304Z,22.77
2022-12-18T10:16:41.834Z,22.05
2022-12-18T10:17:52.136Z,21.75
2022-12-18T10:19:12.145Z,17.27
2022-12-18T10:20:19.484Z,22.42
2022-12-18T10:21:28.949Z,21.52
2022-12-18T10:22:45.357Z,21.67
2022-12-18T10:23:57.550Z,21.27
2022-12-18T10:25:06.596Z,22.08
2022-12-18T10:26:23.293Z,21.48
2022-12-18T10:27:31.535Z,21.05
2022-12-18T10:28:38.480Z,19.85
2022-12-18T10:29:41.535Z,20.60
2022-12-18T10:30:45.611Z,20.23
2022-12-18T10:31:49.917Z,20.17
2022-12-18T10:32:53.237Z,20.50
2022-12-18T10:33:56.578Z,21.45
2022-12-18T10:35:01.120Z,20.83
2022-12-18T10:36:04.160Z,29.50
2022-12-18T10:37:15.713Z,27.58
2022-12-18T10:38:28.172Z,24.20
2022-12-18T10:39:29.766Z,22.25
2022-12-18T10:40:32.740Z,21.33
2022-12-18T10:41:35.663Z,21.45
2022-12-18T10:42:37.276Z,21.27
2022-12-18T10:43:42.424Z,22.13
2022-12-18T10:44:44.027Z,20.98
2022-12-18T10:46:04.148Z,22.92
2022-12-18T10:47:13.087Z,18.08
2022-12-18T10:48:22.327Z,20.73
2022-12-18T10:49:27.689Z,20.17
2022-12-18T10:51:08.657Z,21.38
2022-12-18T10:52:09.152Z,19.85
2022-12-18T10:53:21.216Z,21.65
2022-12-18T10:54:25.774Z,20.30
2022-12-18T10:55:33.522Z,20.23
2022-12-18T10:56:38.603Z,20.98
2022-12-18T10:57:42.585Z,20.88
2022-12-18T10:58:58.664Z,21.70
2022-12-18T11:00:22.773Z,19.73
2022-12-18T11:01:25.412Z,20.42
2022-12-18T11:02:34.283Z,19.92
2022-12-18T11:03:38.985Z,20.75
2022-12-18T11:04:53.470Z,21.23
2022-12-18T11:06:03.307Z,20.30
2022-12-18T11:07:07.789Z,21.70
2022-12-18T11:08:26.015Z,23.75
2022-12-18T11:09:29.828Z,22.05
2022-12-18T11:10:33.488Z,21.67
2022-12-18T11:11:36.698Z,21.75
2022-12-18T11:12:38.321Z,21.13
2022-12-18T11:13:41.554Z,22.08
2022-12-18T11:14:48.150Z,20.23
2022-12-18T11:15:51.712Z,21.77
2022-12-18T11:17:26.206Z,26.17
2022-12-18T11:18:21.817Z,22.00
2022-12-18T11:19:33.763Z,22.33
2022-12-18T11:20:36.955Z,22.73
2022-12-18T11:21:43.419Z,21.60
2022-12-18T11:22:57.357Z,21.25
2022-12-18T11:24:00.154Z,20.17
2022-12-18T11:26:37.180Z,21.90
2022-12-18T11:27:39.326Z,17.23
2022-12-18T11:28:45.588Z,22.27
2022-12-18T11:29:52.486Z,20.10
2022-12-18T11:31:13.781Z,21.17
2022-12-18T11:32:31.188Z,22.02
2022-12-18T11:33:33.992Z,21.92
2022-12-18T11:34:37.114Z,21.02
2022-12-18T11:35:45.249Z,21.30
2022-12-18T11:36:49.763Z,21.65
2022-12-18T11:37:58.566Z,21.10
2022-12-18T11:39:07.891Z,22.25
2022-12-18T11:40:15.555Z,26.70
2022-12-18T11:41:45.880Z,22.38
2022-12-18T11:43:59.084Z,18.33
2022-12-18T11:45:24.527Z,18.83
2022-12-18T11:46:36.667Z,18.02
2022-12-18T11:47:45.186Z,16.80
2022-12-18T11:48:54.198Z,17.42
2022-12-18T11:50:00.467Z,16.75
2022-12-18T11:51:07.554Z,17.30
2022-12-18T11:52:16.851Z,16.85
2022-12-18T11:53:20.328Z,17.67
2022-12-18T11:54:22.008Z,17.10
2022-12-18T11:55:33.104Z,18.58
2022-12-18T11:56:38.460Z,17.27
2022-12-18T11:57:47.345Z,18.33
2022-12-18T11:58:57.038Z,18.27
2022-12-18T12:00:11.069Z,16.90
2022-12-18T12:01:25.002Z,17.60
2022-12-18T12:02:43.857Z,18.60
2022-12-18T12:04:14.523Z,17.98
2022-12-18T12:05:37.466Z,13.88
2022-12-18T12:06:48.580Z,16.58
2022-12-18T12:07:56.301Z,17.58
2022-12-18T12:09:09.781Z,17.00
2022-12-18T12:10:27.964Z,18.02
2022-12-18T12:11:40.486Z,17.67
2022-12-18T12:12:58.104Z,17.83
2022-12-18T12:14:18.288Z,17.98
2022-12-18T12:15:36.836Z,18.38
2022-12-18T12:16:48.433Z,17.77
2022-12-18T12:18:00.091Z,18.50
2022-12-18T12:19:21.435Z,18.98
2022-12-18T12:20:36.262Z,18.85
2022-12-18T12:21:41.472Z,17.58
2022-12-18T12:22:54.849Z,17.13
2022-12-18T12:24:04.476Z,17.55
2022-12-18T12:25:20.058Z,17.20
2022-12-18T12:26:32.315Z,17.85
2022-12-18T12:27:46.309Z,17.52
2022-12-18T12:29:03.919Z,17.52
2022-12-18T12:30:10.402Z,17.65
2022-12-18T12:31:21.006Z,18.02
2022-12-18T12:32:36.864Z,17.65
2022-12-18T12:33:49.402Z,17.10
2022-12-18T12:35:09.609Z,17.80
2022-12-18T12:36:21.597Z,12.75
2022-12-18T12:37:36.035Z,16.35
2022-12-18T12:38:48.298Z,17.42
2022-12-18T12:39:56.471Z,16.67
2022-12-18T12:41:03.127Z,17.33
2022-12-18T12:42:32.136Z,15.68
2022-12-18T12:43:46.119Z,16.25
2022-12-18T12:44:56.245Z,17.25
2022-12-18T12:46:02.287Z,17.67
2022-12-18T12:47:16.965Z,17.35
2022-12-18T12:48:30.030Z,21.50
2022-12-18T12:49:40.394Z,15.98
2022-12-18T12:50:44.011Z,18.55
2022-12-18T12:51:49.205Z,18.58
2022-12-18T12:52:55.203Z,25.55
2022-12-18T12:54:00.095Z,22.15
2022-12-18T12:55:07.973Z,19.75
2022-12-18T12:56:16.282Z,15.35
2022-12-18T12:57:23.733Z,12.25
2022-12-18T12:58:35.615Z,12.48
2022-12-18T12:59:48.984Z,11.95
2022-12-18T13:00:59.972Z,12.10
2022-12-18T13:02:13.415Z,13.13
2022-12-18T13:03:32.011Z,11.07
2022-12-18T13:04:39.116Z,12.63
2022-12-18T13:05:46.665Z,12.65
2022-12-18T13:06:55.601Z,12.10
2022-12-18T13:08:02.787Z,13.27
2022-12-18T13:09:06.068Z,12.68
2022-12-18T13:10:17.554Z,12.95
2022-12-18T13:11:54.845Z,13.23
2022-12-18T13:13:03.334Z,13.60
2022-12-18T13:14:06.258Z,13.68
2022-12-18T13:15:23.432Z,14.13
2022-12-18T13:16:28.223Z,14.07
2022-12-18T13:17:32.196Z,13.88
2022-12-18T13:18:35.877Z,14.32
2022-12-18T13:19:37.522Z,13.07
2022-12-18T13:20:42.581Z,14.82
2022-12-18T13:21:55.389Z,16.02
2022-12-18T13:22:56.953Z,16.13
2022-12-18T13:24:17.781Z,14.43
2022-12-18T13:25:35.698Z,10.77
2022-12-18T13:26:38.554Z,13.25
2022-12-18T13:28:04.437Z,14.07
2022-12-18T13:29:07.421Z,13.70
2022-12-18T13:30:43.335Z,14.23
2022-12-18T13:32:22.810Z,13.25
2022-12-18T13:34:25.822Z,9.45
2022-12-18T13:35:43.646Z,12.93
2022-12-18T13:36:49.514Z,14.63
2022-12-18T13:37:53.530Z,14.18
2022-12-18T13:39:30.322Z,16.13
2022-12-18T13:40:59.056Z,16.73
2022-12-18T13:42:56.781Z,16.08
2022-12-18T13:44:14.024Z,15.52
2022-12-18T13:45:43.746Z,16.30
2022-12-18T13:46:50.641Z,13.70
2022-12-18T13:47:52.587Z,12.77
2022-12-18T13:49:02.052Z,13.25
2022-12-18T13:50:11.402Z,12.07
2022-12-18T13:51:19.394Z,11.10
2022-12-18T13:52:24.590Z,13.10
2022-12-18T13:53:30.927Z,14.95
2022-12-18T13:54:37.901Z,12.90
2022-12-18T13:55:39.521Z,12.60
2022-12-18T13:56:47.201Z,13.65
2022-12-18T13:57:48.771Z,12.68
2022-12-18T13:59:14.021Z,13.05
2022-12-18T14:00:25.868Z,13.07
2022-12-18T14:01:28.990Z,12.68
2022-12-18T14:02:32.509Z,12.48
2022-12-18T14:03:34.169Z,14.80
2022-12-18T14:04:38.974Z,16.90
2022-12-18T14:05:43.353Z,16.00
2022-12-18T14:06:48.325Z,15.10
2022-12-18T14:07:51.559Z,14.13
2022-12-18T14:08:54.937Z,15.63
2022-12-18T14:11:26.496Z,14.77
2022-12-18T14:12:50.329Z,14.35
2022-12-18T14:13:54.124Z,13.30
2022-12-18T14:14:56.818Z,12.77
2022-12-18T14:16:03.835Z,13.20
2022-12-18T14:17:10.776Z,13.05
2022-12-18T14:18:25.114Z,13.35
2022-12-18T14:19:27.863Z,13.52
2022-12-18T14:20:33.551Z,13.88
2022-12-18T14:21:36.304Z,13.70
2022-12-18T14:22:37.913Z,13.48
2022-12-18T14:23:42.970Z,14.23
2022-12-18T14:24:45.235Z,12.13